Time;durP1;ratioP1;P1;durP2;ratioP2;P2;SDS_P1;SDS_P2;PMS_P1;PMS_P2;Temp;Humidity;BMP_temperature;BMP_pressure;BME280_temperature;BME280_humidity;BME280_pressure;Samples;Min_cycle;Max_cycle;Signal;HPM_P1;HPM_P2
2022/10/07 00:00:05;;;;;;;943.63;879.85;;;;;;;10.93;nan;102481.91;692345;28;23478;-62
2022/10/07 00:00:26;;;;;;;973.05;908.38;;;;;;;10.93;nan;102485.44;691543;28;46332;-63
2022/10/07 00:00:49;;;;;;;975.22;910.60;;;;;;;10.92;nan;102489.13;693065;28;21599;-62
2022/10/07 00:01:10;;;;;;;971.17;906.67;;;;;;;10.93;nan;102487.31;694434;28;45206;-62
2022/10/07 00:01:31;;;;;;;1001.20;935.45;;;;;;;10.94;nan;102489.00;695326;28;23453;-63
2022/10/07 00:01:52;;;;;;;998.38;932.70;;;;;;;10.95;nan;102493.44;695346;28;21543;-62
2022/10/07 00:02:14;;;;;;;984.80;919.58;;;;;;;10.95;nan;102488.03;695433;28;22392;-63
2022/10/07 00:02:35;;;;;;;997.50;931.58;;;;;;;10.96;nan;102485.19;693595;28;69241;-61
2022/10/07 00:02:57;;;;;;;1004.05;937.90;;;;;;;10.97;nan;102492.31;695717;28;1693;-62
2022/10/07 00:03:18;;;;;;;1000.28;934.42;;;;;;;10.97;nan;102492.31;695368;28;22315;-63
2022/10/07 00:03:40;;;;;;;969.72;905.05;;;;;;;10.99;nan;102494.88;694070;28;45216;-63
2022/10/07 00:04:02;;;;;;;972.58;907.92;;;;;;;10.97;nan;102486.03;694770;28;45220;-63
2022/10/07 00:04:23;;;;;;;924.95;861.70;;;;;;;10.99;nan;102494.88;695355;28;21532;-63
2022/10/07 00:04:45;;;;;;;918.00;854.92;;;;;;;10.99;nan;102489.47;694394;28;46287;-62
2022/10/07 00:05:06;;;;;;;921.55;858.45;;;;;;;10.99;nan;102492.16;695519;28;21531;-62
2022/10/07 00:05:28;;;;;;;915.78;852.83;;;;;;;10.98;nan;102488.59;694353;28;46320;-61
2022/10/07 00:05:58;;;;;;;924.20;860.00;;;;;;;11.00;nan;102491.16;693082;28;45260;-62
2022/10/07 00:06:20;;;;;;;883.72;821.63;;;;;;;10.99;nan;102494.88;691054;28;137484;-62
2022/10/07 00:06:43;;;;;;;905.35;842.65;;;;;;;10.97;nan;102486.91;694345;28;46360;-62
2022/10/07 00:07:04;;;;;;;924.72;861.30;;;;;;;10.98;nan;102490.44;693163;28;69407;-62
2022/10/07 00:07:25;;;;;;;906.92;844.08;;;;;;;10.97;nan;102488.72;695168;28;22423;-62
2022/10/07 00:07:46;;;;;;;903.03;840.50;;;;;;;10.95;nan;102496.13;695082;28;23913;-63
2022/10/07 00:08:07;;;;;;;876.55;814.90;;;;;;;10.95;nan;102485.31;695217;28;22341;-61
2022/10/07 00:08:29;;;;;;;886.95;825.05;;;;;;;10.94;nan;102487.19;694716;28;22384;-61
2022/10/07 00:08:52;;;;;;;895.17;833.00;;;;;;;10.92;nan;102485.59;694303;28;46559;-62
2022/10/07 00:09:13;;;;;;;886.38;824.50;;;;;;;10.94;nan;102486.28;693709;28;69785;-62
2022/10/07 00:09:34;;;;;;;884.42;822.53;;;;;;;10.93;nan;102490.00;695292;28;20308;-62
2022/10/07 00:09:56;;;;;;;859.38;798.38;;;;;;;10.93;nan;102484.59;695410;28;22420;-62
2022/10/07 00:10:17;;;;;;;880.08;818.45;;;;;;;10.93;nan;102488.16;694449;28;46306;-62
2022/10/07 00:10:40;;;;;;;886.67;824.80;;;;;;;10.93;nan;102490.00;694566;28;46308;-62
2022/10/07 00:11:06;;;;;;;887.95;825.95;;;;;;;10.94;nan;102486.28;694644;28;45222;-62
2022/10/07 00:11:29;;;;;;;901.85;839.40;;;;;;;10.94;nan;102489.00;691267;28;138010;-63
2022/10/07 00:11:50;;;;;;;906.95;844.25;;;;;;;10.94;nan;102492.59;693637;28;67384;-61
2022/10/07 00:12:11;;;;;;;896.10;833.78;;;;;;;10.94;nan;102491.69;695471;28;21296;-63
2022/10/07 00:12:32;;;;;;;910.60;847.70;;;;;;;10.94;nan;102495.28;695012;28;20834;-63
2022/10/07 00:12:55;;;;;;;920.22;857.00;;;;;;;10.94;nan;102495.28;695139;28;22399;-63
2022/10/07 00:13:18;;;;;;;900.05;837.50;;;;;;;10.94;nan;102500.69;693571;28;70473;-63
2022/10/07 00:13:41;;;;;;;937.35;873.70;;;;;;;10.94;nan;102498.00;694222;28;46469;-63
2022/10/07 00:14:06;;;;;;;920.03;856.85;;;;;;;10.92;nan;102497.25;693695;28;69495;-62
2022/10/07 00:14:28;;;;;;;906.88;844.05;;;;;;;10.89;nan;102497.53;692132;28;114883;-61
2022/10/07 00:14:49;;;;;;;902.28;839.80;;;;;;;10.85;nan;102497.97;694487;28;44381;-63
2022/10/07 00:15:10;;;;;;;916.55;853.42;;;;;;;10.80;nan;102501.91;695247;28;21188;-62
2022/10/07 00:15:31;;;;;;;905.15;842.28;;;;;;;10.78;nan;102503.03;694413;28;44291;-62
2022/10/07 00:15:52;;;;;;;907.88;845.00;;;;;;;10.76;nan;102503.16;694898;28;22360;-63
2022/10/07 00:16:17;;;;;;;897.13;834.55;;;;;;;10.73;nan;102498.03;695259;28;21517;-61
2022/10/07 00:16:40;;;;;;;907.88;845.30;;;;;;;10.70;nan;102495.59;692206;28;116000;-63
2022/10/07 00:17:01;;;;;;;921.72;858.40;;;;;;;10.66;nan;102496.88;696382;28;46434;-63
2022/10/07 00:17:22;;;;;;;929.85;866.05;;;;;;;10.59;nan;102488.41;693963;28;48045;-63
2022/10/07 00:17:44;;;;;;;918.03;854.88;;;;;;;10.64;nan;102497.00;695113;28;23604;-61
2022/10/07 00:18:05;;;;;;;912.58;849.60;;;;;;;10.64;nan;102499.72;694374;28;44370;-62
2022/10/07 00:18:26;;;;;;;911.50;848.55;;;;;;;10.64;nan;102493.44;694465;28;22371;-63
2022/10/07 00:18:48;;;;;;;897.60;835.15;;;;;;;10.64;nan;102497.00;695060;28;22392;-63
2022/10/07 00:19:11;;;;;;;903.10;840.38;;;;;;;10.63;nan;102489.88;693790;28;46109;-63
2022/10/07 00:19:33;;;;;;;914.85;851.85;;;;;;;10.65;nan;102492.44;690938;28;67475;-63
2022/10/07 00:19:57;;;;;;;918.65;855.67;;;;;;;10.65;nan;102497.84;693314;28;1305;-63
2022/10/07 00:20:18;;;;;;;915.58;852.70;;;;;;;10.64;nan;102490.72;690055;28;90824;-63
2022/10/07 00:20:39;;;;;;;920.55;857.42;;;;;;;10.62;nan;102487.31;691762;28;44303;-63
2022/10/07 00:21:05;;;;;;;916.88;853.90;;;;;;;10.66;nan;102487.88;692674;28;22249;-62
2022/10/07 00:21:28;;;;;;;899.53;837.05;;;;;;;10.67;nan;102489.59;687722;28;160909;-62
2022/10/07 00:21:50;;;;;;;921.75;858.63;;;;;;;10.67;nan;102492.31;691482;28;69344;-62
2022/10/07 00:22:11;;;;;;;911.20;848.45;;;;;;;10.68;nan;102497.59;691916;28;46261;-61
2022/10/07 00:22:33;;;;;;;923.28;860.15;;;;;;;10.67;nan;102490.44;692329;28;22316;-62
2022/10/07 00:22:54;;;;;;;925.05;861.75;;;;;;;10.69;nan;102495.72;691797;28;46369;-63
2022/10/07 00:23:15;;;;;;;918.88;855.83;;;;;;;10.69;nan;102490.31;692416;28;21320;-63
2022/10/07 00:23:37;;;;;;;921.72;858.45;;;;;;;10.68;nan;102489.47;691320;28;46367;-63
2022/10/07 00:23:59;;;;;;;923.97;860.67;;;;;;;10.67;nan;102495.84;692654;28;23437;-63
2022/10/07 00:24:21;;;;;;;921.00;857.85;;;;;;;10.68;nan;102489.47;690958;28;67496;-62
2022/10/07 00:24:42;;;;;;;925.67;862.40;;;;;;;10.69;nan;102493.03;692582;28;23172;-63
2022/10/07 00:25:04;;;;;;;928.45;865.30;;;;;;;10.69;nan;102488.50;691868;28;46318;-63
2022/10/07 00:25:25;;;;;;;918.05;855.10;;;;;;;10.69;nan;102491.19;692487;28;21297;-62
2022/10/07 00:25:47;;;;;;;927.22;863.85;;;;;;;10.69;nan;102493.91;692552;28;23494;-63
2022/10/07 00:26:10;;;;;;;926.22;862.95;;;;;;;10.68;nan;102494.03;691913;28;46371;-62
2022/10/07 00:26:33;;;;;;;930.05;866.55;;;;;;;10.67;nan;102487.75;690746;28;69633;-63
2022/10/07 00:26:55;;;;;;;923.75;860.50;;;;;;;10.67;nan;102489.59;690533;28;69379;-63
2022/10/07 00:27:18;;;;;;;917.10;853.90;;;;;;;10.62;nan;102487.31;690715;28;69202;-63
2022/10/07 00:27:40;;;;;;;921.03;857.83;;;;;;;10.63;nan;102499.84;691659;28;46289;-63
2022/10/07 00:28:02;;;;;;;942.88;878.97;;;;;;;10.63;nan;102497.13;691596;28;44409;-63
2022/10/07 00:28:24;;;;;;;962.72;898.17;;;;;;;10.62;nan;102493.56;692091;28;22396;-62
2022/10/07 00:28:46;;;;;;;973.05;907.97;;;;;;;10.61;nan;102494.56;689665;28;89264;-63
2022/10/07 00:29:08;;;;;;;962.38;897.80;;;;;;;10.61;nan;102496.41;692316;28;23482;-63
2022/10/07 00:29:30;;;;;;;936.15;872.47;;;;;;;10.60;nan;102490.16;690855;28;67512;-62
2022/10/07 00:29:51;;;;;;;935.25;871.60;;;;;;;10.58;nan;102493.97;692664;28;21571;-63
2022/10/07 00:30:12;;;;;;;936.55;872.83;;;;;;;10.56;nan;102491.38;692464;28;23448;-63
2022/10/07 00:30:33;;;;;;;941.80;877.97;;;;;;;10.55;nan;102495.09;692545;28;22473;-63
2022/10/07 00:30:58;;;;;;;916.85;853.83;;;;;;;10.53;nan;102498.91;692640;28;22396;-63
2022/10/07 00:31:22;;;;;;;923.47;860.28;;;;;;;10.52;nan;102502.63;688463;28;115139;-62
2022/10/07 00:31:43;;;;;;;924.47;861.15;;;;;;;10.51;nan;102495.50;687069;28;92302;-62
2022/10/07 00:32:04;;;;;;;927.05;863.60;;;;;;;10.51;nan;102498.22;689310;28;22360;-63
2022/10/07 00:32:25;;;;;;;939.30;875.50;;;;;;;10.50;nan;102491.97;689657;28;22413;-62
2022/10/07 00:32:49;;;;;;;937.42;873.85;;;;;;;10.51;nan;102488.25;688973;28;69443;-63
2022/10/07 00:33:10;;;;;;;923.97;860.75;;;;;;;10.53;nan;102490.81;691651;28;46395;-62
2022/10/07 00:33:32;;;;;;;936.40;872.72;;;;;;;10.53;nan;102482.72;691773;28;23578;-63
2022/10/07 00:33:54;;;;;;;926.80;863.58;;;;;;;10.54;nan;102481.72;691717;28;45257;-62
2022/10/07 00:34:17;;;;;;;935.47;872.08;;;;;;;10.55;nan;102487.00;690873;28;69391;-62
2022/10/07 00:34:38;;;;;;;934.75;871.25;;;;;;;10.57;nan;102487.72;691524;28;45226;-63
2022/10/07 00:34:59;;;;;;;920.50;857.55;;;;;;;10.58;nan;102489.44;692501;28;22385;-62
2022/10/07 00:35:21;;;;;;;924.42;861.15;;;;;;;10.61;nan;102491.00;691465;28;46365;-63
2022/10/07 00:35:42;;;;;;;924.58;861.33;;;;;;;10.61;nan;102483.75;692297;28;23482;-63
2022/10/07 00:36:06;;;;;;;932.72;869.25;;;;;;;10.62;nan;102482.75;692434;28;23502;-63
2022/10/07 00:36:29;;;;;;;923.88;860.67;;;;;;;10.64;nan;102482.63;689946;28;115474;-63
2022/10/07 00:36:50;;;;;;;934.08;870.47;;;;;;;10.66;nan;102483.34;694171;28;44434;-63
2022/10/07 00:37:11;;;;;;;954.08;889.50;;;;;;;10.66;nan;102485.19;690912;28;46244;-62
2022/10/07 00:37:33;;;;;;;936.70;872.90;;;;;;;10.67;nan;102490.44;692174;28;22527;-63
2022/10/07 00:37:55;;;;;;;932.90;869.40;;;;;;;10.67;nan;102498.56;692331;28;23467;-63
2022/10/07 00:38:16;;;;;;;930.13;866.63;;;;;;;10.67;nan;102490.44;692054;28;30706;-63
2022/10/07 00:38:38;;;;;;;926.17;862.75;;;;;;;10.67;nan;102495.84;692590;28;4373;-62
2022/10/07 00:39:01;;;;;;;937.88;874.20;;;;;;;10.64;nan;102490.72;689713;28;44363;-63
2022/10/07 00:39:23;;;;;;;948.42;884.33;;;;;;;10.64;nan;102490.72;691535;28;45438;-63
2022/10/07 00:39:44;;;;;;;933.50;869.90;;;;;;;10.63;nan;102491.72;690314;28;67484;-63
2022/10/07 00:40:06;;;;;;;942.00;878.10;;;;;;;10.62;nan;102492.72;692268;28;21543;-63
2022/10/07 00:40:27;;;;;;;949.55;885.35;;;;;;;10.61;nan;102496.41;691527;28;45214;-62
2022/10/07 00:40:49;;;;;;;926.42;863.10;;;;;;;10.59;nan;102496.53;692473;28;21544;-63
2022/10/07 00:41:16;;;;;;;924.45;861.17;;;;;;;10.56;nan;102494.09;691509;28;44377;-63
2022/10/07 00:41:39;;;;;;;934.28;870.65;;;;;;;10.55;nan;102487.00;688304;28;139069;-61
2022/10/07 00:42:02;;;;;;;932.70;869.20;;;;;;;10.50;nan;102491.97;687802;28;69241;-62
2022/10/07 00:42:23;;;;;;;926.20;863.10;;;;;;;10.44;nan;102481.69;687895;28;69803;-63
2022/10/07 00:42:45;;;;;;;923.22;860.20;;;;;;;10.48;nan;102482.25;689627;28;23487;-62
2022/10/07 00:43:18;;;;;;;901.80;839.47;;;;;;;10.47;nan;102492.22;689692;28;22277;-63
2022/10/07 00:43:40;;;;;;;935.08;871.42;;;;;;;10.47;nan;102484.13;687710;28;138728;-62
2022/10/07 00:44:38;;;;;;;929.63;866.10;;;;;;;10.47;nan;102484.13;693742;28;46410;-63
2022/10/07 00:44:59;;;;;;;923.05;859.83;;;;;;;10.48;nan;102479.56;685005;28;137748;-63
2022/10/07 00:45:20;;;;;;;923.05;859.78;;;;;;;10.49;nan;102489.38;692263;28;21523;-63
2022/10/07 00:45:42;;;;;;;923.40;860.20;;;;;;;10.49;nan;102478.59;692373;28;23469;-63
2022/10/07 00:46:07;;;;;;;928.45;865.08;;;;;;;10.51;nan;102484.69;691563;28;44393;-63
2022/10/07 00:46:30;;;;;;;929.95;866.40;;;;;;;10.52;nan;102486.41;689402;28;108460;-63
2022/10/07 00:46:51;;;;;;;918.33;855.33;;;;;;;10.50;nan;102478.44;688812;28;69397;-61
2022/10/07 00:47:18;;;;;;;925.22;861.90;;;;;;;10.50;nan;102472.16;692057;28;21526;-63
2022/10/07 00:47:41;;;;;;;931.88;868.33;;;;;;;10.50;nan;102481.16;688404;28;138026;-63
2022/10/07 00:48:02;;;;;;;917.70;854.72;;;;;;;10.49;nan;102484.00;690768;28;69243;-62
2022/10/07 00:48:27;;;;;;;915.58;852.42;;;;;;;10.48;nan;102480.41;691715;28;22386;-61
2022/10/07 00:48:48;;;;;;;905.05;842.38;;;;;;;10.47;nan;102476.00;690683;28;133795;-62
2022/10/07 00:49:12;;;;;;;908.65;845.78;;;;;;;10.46;nan;102469.72;693309;28;45235;-63
2022/10/07 00:49:39;;;;;;;917.35;854.22;;;;;;;10.46;nan;102477.84;693376;28;69271;-63
2022/10/07 00:50:03;;;;;;;923.85;860.65;;;;;;;10.45;nan;102473.44;688580;28;160722;-63
2022/10/07 00:50:26;;;;;;;929.05;865.63;;;;;;;10.45;nan;102481.56;686456;28;115245;-63
2022/10/07 00:50:48;;;;;;;933.30;869.85;;;;;;;10.45;nan;102473.44;687393;28;92201;-61
2022/10/07 00:51:10;;;;;;;923.75;860.67;;;;;;;10.45;nan;102477.97;689553;28;21534;-63
2022/10/07 00:51:34;;;;;;;923.42;860.28;;;;;;;10.44;nan;102474.44;687404;28;92130;-63
2022/10/07 00:51:55;;;;;;;933.40;869.90;;;;;;;10.44;nan;102471.72;687918;28;66978;-62
2022/10/07 00:52:19;;;;;;;938.03;874.38;;;;;;;10.44;nan;102473.56;690844;28;21543;-63
2022/10/07 00:52:43;;;;;;;931.65;868.08;;;;;;;10.45;nan;102473.44;690156;28;90742;-63
2022/10/07 00:53:06;;;;;;;932.75;869.15;;;;;;;10.45;nan;102473.44;690567;28;92051;-63
2022/10/07 00:53:29;;;;;;;926.17;862.83;;;;;;;10.46;nan;102467.03;696534;28;44193;-63
2022/10/07 00:53:52;;;;;;;912.17;849.30;;;;;;;10.45;nan;102478.84;691233;28;92285;-62
2022/10/07 00:54:15;;;;;;;910.75;847.90;;;;;;;10.46;nan;102472.44;690729;28;67477;-63
2022/10/07 00:54:37;;;;;;;930.85;867.30;;;;;;;10.46;nan;102471.59;689685;28;46344;-63
2022/10/07 00:55:00;;;;;;;930.63;867.17;;;;;;;10.45;nan;102465.34;688278;28;67355;-62
2022/10/07 00:55:24;;;;;;;930.47;867.08;;;;;;;10.45;nan;102468.03;687985;28;69385;-62
2022/10/07 00:55:45;;;;;;;927.35;864.03;;;;;;;10.45;nan;102468.03;689592;28;69473;-63
2022/10/07 00:56:07;;;;;;;901.42;838.90;;;;;;;10.44;nan;102460.06;688965;28;44359;-62
2022/10/07 00:56:29;;;;;;;916.90;853.83;;;;;;;10.47;nan;102470.63;689871;28;46336;-63
2022/10/07 00:56:50;;;;;;;933.63;870.08;;;;;;;10.49;nan;102467.78;691532;28;46346;-63
2022/10/07 00:57:11;;;;;;;934.13;870.22;;;;;;;10.48;nan;102471.47;691753;28;23501;-63
2022/10/07 00:57:33;;;;;;;933.00;869.35;;;;;;;10.49;nan;102463.22;692273;28;21305;-62
2022/10/07 00:58:01;;;;;;;927.22;863.90;;;;;;;10.53;nan;102463.78;692326;28;46419;-62
2022/10/07 00:58:23;;;;;;;920.63;857.42;;;;;;;10.54;nan;102470.91;689614;28;137794;-62
2022/10/07 00:58:46;;;;;;;919.28;856.10;;;;;;;10.53;nan;102464.66;690684;28;67736;-62
2022/10/07 00:59:07;;;;;;;937.13;873.33;;;;;;;10.53;nan;102463.78;690711;28;69415;-62
2022/10/07 00:59:28;;;;;;;940.33;876.58;;;;;;;10.53;nan;102461.97;692445;28;21517;-63
2022/10/07 00:59:51;;;;;;;937.97;874.53;;;;;;;10.53;nan;102463.78;694044;28;46369;-63
2022/10/07 01:00:13;;;;;;;950.10;886.05;;;;;;;10.52;nan;102465.66;694175;28;46325;-61
2022/10/07 01:00:34;;;;;;;918.30;855.22;;;;;;;10.50;nan;102467.66;691459;28;44352;-63
2022/10/07 01:00:56;;;;;;;928.53;865.17;;;;;;;10.49;nan;102467.78;689670;28;21503;-63
2022/10/07 01:01:19;;;;;;;939.70;875.85;;;;;;;10.45;nan;102459.94;686252;28;46366;-63
2022/10/07 01:01:40;;;;;;;922.45;859.15;;;;;;;10.45;nan;102470.75;685332;28;69486;-63
2022/10/07 01:02:04;;;;;;;927.17;863.70;;;;;;;10.45;nan;102467.16;681808;28;94482;-63
2022/10/07 01:02:26;;;;;;;937.05;873.35;;;;;;;10.42;nan;102465.59;686285;28;1062;-62
2022/10/07 01:02:48;;;;;;;925.58;862.25;;;;;;;10.40;nan;102472.97;688500;28;2781;-63
2022/10/07 01:03:10;;;;;;;931.35;867.72;;;;;;;10.41;nan;102469.28;688994;28;69401;-63
2022/10/07 01:03:34;;;;;;;935.28;871.53;;;;;;;10.39;nan;102462.31;691775;28;23465;-63
2022/10/07 01:03:56;;;;;;;940.35;876.45;;;;;;;10.38;nan;102468.72;686295;28;115873;-63
2022/10/07 01:04:19;;;;;;;929.83;866.28;;;;;;;10.36;nan;102465.25;687774;28;66774;-63
2022/10/07 01:04:41;;;;;;;921.80;858.53;;;;;;;10.35;nan;102464.41;689402;28;40427;-63
2022/10/07 01:05:05;;;;;;;917.88;854.80;;;;;;;10.34;nan;102464.56;689347;28;22358;-62
2022/10/07 01:05:26;;;;;;;936.35;872.70;;;;;;;10.34;nan;102461.84;686384;28;114992;-63
2022/10/07 01:05:48;;;;;;;923.13;859.90;;;;;;;10.31;nan;102460.22;690832;28;22340;-61
2022/10/07 01:06:10;;;;;;;925.95;862.65;;;;;;;10.31;nan;102462.94;690676;28;22399;-63
2022/10/07 01:06:32;;;;;;;926.17;862.75;;;;;;;10.32;nan;102458.41;689882;28;90303;-62
2022/10/07 01:06:54;;;;;;;928.10;864.63;;;;;;;10.32;nan;102453.84;691507;28;23366;-62
2022/10/07 01:07:19;;;;;;;935.50;871.42;;;;;;;10.32;nan;102456.56;692252;28;21280;-63
2022/10/07 01:07:40;;;;;;;932.97;869.37;;;;;;;10.32;nan;102455.69;688164;28;138779;-62
2022/10/07 01:08:04;;;;;;;934.55;871.05;;;;;;;10.31;nan;102457.53;686502;28;92208;-63
2022/10/07 01:08:27;;;;;;;924.45;861.15;;;;;;;10.30;nan;102458.53;687466;28;69509;-61
2022/10/07 01:08:51;;;;;;;932.55;869.03;;;;;;;10.29;nan;102451.41;688604;28;45252;-62
2022/10/07 01:09:12;;;;;;;942.30;878.30;;;;;;;10.28;nan;102449.69;686362;28;92230;-62
2022/10/07 01:09:34;;;;;;;935.72;871.97;;;;;;;10.28;nan;102450.56;687637;28;46302;-63
2022/10/07 01:09:59;;;;;;;926.92;863.50;;;;;;;10.27;nan;102448.84;687470;28;45221;-62
2022/10/07 01:10:21;;;;;;;932.55;868.85;;;;;;;10.29;nan;102454.13;684158;28;92045;-63
2022/10/07 01:10:50;;;;;;;935.88;871.95;;;;;;;10.29;nan;102451.41;685843;28;44428;-63
2022/10/07 01:11:18;;;;;;;923.50;860.22;;;;;;;10.29;nan;102448.72;684420;28;123671;-63
2022/10/07 01:11:45;;;;;;;936.17;872.53;;;;;;;10.29;nan;102452.25;685213;28;137877;-62
2022/10/07 01:12:10;;;;;;;949.90;885.78;;;;;;;10.28;nan;102455.09;686195;28;138035;-62
2022/10/07 01:12:40;;;;;;;928.63;865.13;;;;;;;10.28;nan;102455.09;687168;28;92269;-63
2022/10/07 01:13:05;;;;;;;939.88;876.13;;;;;;;10.27;nan;102451.53;683932;28;138099;-63
2022/10/07 01:13:31;;;;;;;936.38;872.72;;;;;;;10.27;nan;102450.69;685857;28;113369;-63
2022/10/07 01:14:02;;;;;;;908.22;845.47;;;;;;;10.26;nan;102446.28;685692;28;138221;-62
2022/10/07 01:14:30;;;;;;;896.35;833.80;;;;;;;10.24;nan;102451.81;688375;28;119457;-62
2022/10/07 01:14:57;;;;;;;921.03;857.72;;;;;;;10.24;nan;102451.81;688161;28;136325;-63
2022/10/07 01:15:25;;;;;;;921.00;857.72;;;;;;;10.22;nan;102447.53;687958;28;136289;-63
2022/10/07 01:15:53;;;;;;;937.85;874.05;;;;;;;10.23;nan;102446.53;688258;28;137627;-63
2022/10/07 01:16:22;;;;;;;928.35;865.05;;;;;;;10.23;nan;102446.53;685659;28;137482;-62
2022/10/07 01:16:50;;;;;;;934.25;870.78;;;;;;;10.22;nan;102448.41;685685;28;137876;-61
2022/10/07 01:17:17;;;;;;;936.33;872.45;;;;;;;10.18;nan;102436.13;684532;28;160547;-62
2022/10/07 01:17:46;;;;;;;942.97;878.97;;;;;;;10.24;nan;102440.16;685847;28;135997;-63
2022/10/07 01:18:14;;;;;;;926.88;863.25;;;;;;;10.23;nan;102443.84;685899;28;137126;-63
2022/10/07 01:18:41;;;;;;;914.60;851.55;;;;;;;10.23;nan;102446.53;686824;28;137721;-62
2022/10/07 01:19:16;;;;;;;935.10;871.40;;;;;;;10.23;nan;102450.09;687879;28;159159;-62
2022/10/07 01:19:49;;;;;;;930.53;866.90;;;;;;;10.21;nan;102445.84;690385;28;158625;-63
2022/10/07 01:20:18;;;;;;;917.50;854.35;;;;;;;10.20;nan;102434.19;690528;28;160624;-63
2022/10/07 01:20:45;;;;;;;940.00;876.05;;;;;;;10.18;nan;102438.84;690443;28;159047;-63
2022/10/07 01:21:09;;;;;;;949.38;885.20;;;;;;;10.17;nan;102436.28;690884;28;138041;-63
2022/10/07 01:21:35;;;;;;;919.45;856.13;;;;;;;10.16;nan;102435.44;692313;28;90484;-62
2022/10/07 01:22:03;;;;;;;949.72;885.42;;;;;;;10.14;nan;102433.84;691182;28;138853;-63
2022/10/07 01:22:29;;;;;;;927.37;863.83;;;;;;;10.16;nan;102432.72;689984;28;159424;-62
2022/10/07 01:23:03;;;;;;;944.70;880.67;;;;;;;10.15;nan;102433.69;691232;28;138298;-62
2022/10/07 01:23:38;;;;;;;926.97;863.47;;;;;;;10.18;nan;102438.00;695598;28;60492;-62
2022/10/07 01:24:08;;;;;;;917.50;854.13;;;;;;;10.17;nan;102434.44;689117;28;135665;-62
2022/10/07 01:24:37;;;;;;;931.88;868.33;;;;;;;10.17;nan;102433.56;688456;28;137724;-63
2022/10/07 01:25:15;;;;;;;936.53;872.85;;;;;;;10.17;nan;102437.16;688523;28;136219;-62
2022/10/07 01:25:45;;;;;;;934.63;870.72;;;;;;;10.18;nan;102430.75;685245;28;137741;-62
2022/10/07 01:26:27;;;;;;;931.28;867.67;;;;;;;10.19;nan;102432.47;685642;28;136072;-63
2022/10/07 01:26:54;;;;;;;938.33;874.63;;;;;;;10.18;nan;102433.44;686496;28;138339;-63
2022/10/07 01:27:16;;;;;;;940.55;876.30;;;;;;;10.17;nan;102433.56;684764;28;161782;-63
2022/10/07 01:27:38;;;;;;;942.63;878.53;;;;;;;10.15;nan;102433.69;690248;28;67063;-63
2022/10/07 01:28:03;;;;;;;930.45;866.95;;;;;;;10.14;nan;102428.44;691440;28;46320;-63
2022/10/07 01:28:28;;;;;;;928.05;864.47;;;;;;;10.14;nan;102432.00;688726;28;115756;-62
2022/10/07 01:28:53;;;;;;;906.20;843.33;;;;;;;10.14;nan;102432.00;688995;28;114974;-62
2022/10/07 01:29:17;;;;;;;926.05;862.75;;;;;;;10.14;nan;102431.13;691276;28;115125;-63
2022/10/07 01:29:42;;;;;;;933.08;869.40;;;;;;;10.13;nan;102437.53;690324;28;90655;-61
2022/10/07 01:30:05;;;;;;;943.85;879.92;;;;;;;10.10;nan;102428.69;686251;28;115084;-63
2022/10/07 01:30:30;;;;;;;935.35;871.63;;;;;;;10.09;nan;102432.41;686775;28;88383;-63
2022/10/07 01:30:54;;;;;;;926.35;862.95;;;;;;;10.09;nan;102421.63;684851;28;92265;-62
2022/10/07 01:31:19;;;;;;;922.67;859.47;;;;;;;10.05;nan;102425.56;687097;28;92665;-62
2022/10/07 01:31:44;;;;;;;935.90;872.10;;;;;;;10.07;nan;102430.81;689019;28;113673;-62
2022/10/07 01:32:10;;;;;;;941.03;877.13;;;;;;;10.06;nan;102421.00;689443;28;116926;-63
2022/10/07 01:32:36;;;;;;;940.60;876.65;;;;;;;10.06;nan;102424.56;687255;28;161044;-63
2022/10/07 01:33:01;;;;;;;933.95;870.25;;;;;;;10.06;nan;102429.97;685675;28;138091;-62
2022/10/07 01:33:26;;;;;;;928.55;865.13;;;;;;;10.07;nan;102433.53;686872;28;113560;-62
2022/10/07 01:33:48;;;;;;;939.28;875.28;;;;;;;10.06;nan;102423.69;684642;28;156913;-63
2022/10/07 01:34:12;;;;;;;932.10;868.38;;;;;;;10.07;nan;102422.72;688517;28;47323;-61
2022/10/07 01:34:35;;;;;;;936.88;872.95;;;;;;;10.06;nan;102421.88;687908;28;69428;-63
2022/10/07 01:34:56;;;;;;;922.63;859.30;;;;;;;10.07;nan;102426.25;688287;28;69402;-62
2022/10/07 01:35:21;;;;;;;923.58;860.22;;;;;;;10.06;nan;102427.28;690919;28;22446;-63
2022/10/07 01:35:45;;;;;;;911.30;848.28;;;;;;;10.06;nan;102429.09;689944;28;92009;-62
2022/10/07 01:36:10;;;;;;;944.75;880.67;;;;;;;10.05;nan;102430.09;686160;28;113580;-63
2022/10/07 01:36:35;;;;;;;935.60;871.63;;;;;;;10.04;nan;102426.53;686128;28;115074;-62
2022/10/07 01:36:58;;;;;;;936.95;872.90;;;;;;;10.03;nan;102426.66;686306;28;115935;-63
2022/10/07 01:37:21;;;;;;;935.15;871.05;;;;;;;10.03;nan;102430.25;688418;28;44356;-62
2022/10/07 01:37:47;;;;;;;937.90;874.05;;;;;;;10.03;nan;102424.84;684630;28;93005;-62
2022/10/07 01:38:09;;;;;;;940.38;876.40;;;;;;;10.03;nan;102427.53;685939;28;115199;-62
2022/10/07 01:38:33;;;;;;;929.35;865.72;;;;;;;10.03;nan;102424.84;690223;28;13395;-62
2022/10/07 01:39:01;;;;;;;916.80;853.70;;;;;;;10.03;nan;102426.66;688771;28;69127;-61
2022/10/07 01:39:27;;;;;;;929.72;866.10;;;;;;;10.03;nan;102416.75;688442;28;136240;-63
2022/10/07 01:39:50;;;;;;;921.50;858.17;;;;;;;10.03;nan;102419.44;691541;28;137920;-62
2022/10/07 01:40:14;;;;;;;937.95;873.95;;;;;;;10.04;nan;102423.84;690969;28;67301;-62
2022/10/07 01:40:37;;;;;;;933.50;869.65;;;;;;;10.05;nan;102424.72;690373;28;69823;-63
2022/10/07 01:41:03;;;;;;;928.25;864.83;;;;;;;10.06;nan;102416.47;693020;28;92279;-62
2022/10/07 01:41:27;;;;;;;934.67;870.97;;;;;;;10.06;nan;102427.28;688774;28;137586;-63
2022/10/07 01:41:49;;;;;;;930.35;866.95;;;;;;;10.06;nan;102421.00;687990;28;92286;-63
2022/10/07 01:42:12;;;;;;;929.88;866.35;;;;;;;10.06;nan;102418.31;687036;28;69421;-62
2022/10/07 01:42:35;;;;;;;935.50;871.70;;;;;;;10.04;nan;102421.13;684090;28;46413;-63
2022/10/07 01:42:57;;;;;;;934.75;871.08;;;;;;;10.03;nan;102422.13;685632;28;46332;-63
2022/10/07 01:43:19;;;;;;;937.58;873.70;;;;;;;10.02;nan;102425.81;687142;28;45282;-63
2022/10/07 01:43:41;;;;;;;930.42;866.80;;;;;;;9.99;nan;102425.22;689174;28;69452;-63
2022/10/07 01:44:03;;;;;;;920.17;856.88;;;;;;;9.98;nan;102424.34;689819;28;27941;-61
2022/10/07 01:44:28;;;;;;;940.65;876.60;;;;;;;9.95;nan;102419.22;687981;28;38049;-63
2022/10/07 01:44:52;;;;;;;933.92;870.17;;;;;;;9.90;nan;102418.75;689624;28;115475;-63
2022/10/07 01:45:15;;;;;;;934.40;870.60;;;;;;;9.90;nan;102422.31;693129;28;91888;-62
2022/10/07 01:45:38;;;;;;;938.50;874.60;;;;;;;9.89;nan;102423.31;693783;28;69430;-62
2022/10/07 01:46:00;;;;;;;917.88;854.65;;;;;;;9.87;nan;102419.91;695750;28;69415;-62
2022/10/07 01:46:24;;;;;;;923.97;860.55;;;;;;;9.86;nan;102420.88;697324;28;46310;-63
2022/10/07 01:46:46;;;;;;;929.90;866.25;;;;;;;9.86;nan;102411.94;693775;28;92911;-63
2022/10/07 01:47:08;;;;;;;932.10;868.13;;;;;;;9.85;nan;102416.47;689345;28;69396;-63
2022/10/07 01:47:29;;;;;;;919.40;856.08;;;;;;;9.86;nan;102417.34;689879;28;21664;-62
2022/10/07 01:47:51;;;;;;;921.95;858.60;;;;;;;9.86;nan;102417.34;687285;28;22395;-62
2022/10/07 01:48:13;;;;;;;927.10;863.42;;;;;;;9.86;nan;102417.34;685929;28;69265;-62